Terminal Aerodrome Forecast
Issued by NWS Charleston, WV

Home | Current Version | Previous Version | Text Only | Print | Product List | Glossary On
Versions: 1 2 3 4 5 6 7 8 9 10 11 12 13 14 15 16 17 18 19 20 21 22 23 24 25 26 27 28 29
352
FTUS41 KRLX 240258 AAB
TAFEKN
TAF AMD
KEKN 240258Z 2403/2424 VRB03KT P6SM -SHSN OVC025
     FM240500 34005KT P6SM OVC012
      TEMPO 2405/2408 2SM -SHSN
     FM240800 33005KT 3SM -SHSN OVC008
     FM241200 30005KT 4SM -SHRA OVC015=

USA.gov is the U.S. government's official web portal to all federal, state and local government web resources and services.